createdAt,value
2022-11-16T00:00:18.150Z,8.07
2022-11-16T00:05:24.200Z,8.00
2022-11-16T00:10:28.880Z,7.32
2022-11-16T00:15:30.564Z,8.82
2022-11-16T00:20:32.175Z,7.90
2022-11-16T00:25:33.841Z,6.63
2022-11-16T00:30:35.507Z,7.22
2022-11-16T00:35:40.337Z,5.40
2022-11-16T00:40:41.958Z,5.95
2022-11-16T00:45:44.211Z,8.30
2022-11-16T00:50:46.209Z,6.40
2022-11-16T00:55:48.902Z,6.45
2022-11-16T01:00:52.948Z,8.40
2022-11-16T01:06:03.601Z,6.78
2022-11-16T01:11:24.756Z,8.73
2022-11-16T01:16:26.420Z,8.23
2022-11-16T01:21:28.035Z,7.00
2022-11-16T01:26:29.750Z,7.85
2022-11-16T01:31:31.428Z,5.78
2022-11-16T01:36:36.809Z,5.93
2022-11-16T01:41:40.624Z,7.80
2022-11-16T01:46:42.447Z,7.18
2022-11-16T01:51:51.761Z,7.18
2022-11-16T01:56:56.070Z,8.02
2022-11-16T02:02:08.909Z,7.65
2022-11-16T02:07:19.768Z,6.68
2022-11-16T02:12:42.171Z,5.72
2022-11-16T02:17:56.884Z,7.38
2022-11-16T02:23:07.737Z,6.50
2022-11-16T02:28:57.234Z,6.63
2022-11-16T02:33:59.507Z,5.68
2022-11-16T02:39:05.196Z,6.18
2022-11-16T02:44:13.259Z,8.85
2022-11-16T02:49:18.566Z,7.85
2022-11-16T02:54:21.809Z,7.18
2022-11-16T02:59:30.570Z,7.75
2022-11-16T03:04:37.556Z,8.52
2022-11-16T03:09:41.872Z,7.90
2022-11-16T03:14:59.532Z,7.07
2022-11-16T03:20:05.511Z,6.53
2022-11-16T03:25:12.182Z,6.38
2022-11-16T03:30:21.126Z,6.68
2022-11-16T03:35:38.244Z,5.95
2022-11-16T03:40:41.245Z,6.30
2022-11-16T03:45:43.435Z,5.45
2022-11-16T03:50:45.957Z,5.13
2022-11-16T03:55:50.066Z,5.03
2022-11-16T04:00:53.251Z,6.78
2022-11-16T04:06:13.858Z,4.75
2022-11-16T04:11:36.020Z,6.10
2022-11-16T04:16:56.470Z,6.43
2022-11-16T04:22:32.484Z,5.53
2022-11-16T04:27:52.646Z,5.18
2022-11-16T04:33:13.177Z,5.13
2022-11-16T04:38:14.989Z,6.60
2022-11-16T04:43:17.838Z,6.20
2022-11-16T04:48:20.722Z,4.43
2022-11-16T04:53:27.927Z,4.97
2022-11-16T04:58:47.878Z,5.45
2022-11-16T05:03:50.566Z,4.72
2022-11-16T05:08:53.029Z,3.92
2022-11-16T05:13:54.916Z,5.38
2022-11-16T05:19:15.448Z,5.78
2022-11-16T05:24:35.472Z,5.53
2022-11-16T05:29:39.012Z,6.20
2022-11-16T05:34:40.833Z,4.05
2022-11-16T05:39:42.865Z,4.57
2022-11-16T05:44:45.068Z,4.03
2022-11-16T05:49:47.018Z,4.55
2022-11-16T05:54:49.291Z,5.43
2022-11-16T05:59:51.353Z,5.20
2022-11-16T06:04:53.308Z,3.53
2022-11-16T06:09:56.022Z,4.55
2022-11-16T06:14:57.837Z,3.85
2022-11-16T06:19:59.781Z,5.35
2022-11-16T06:25:01.931Z,4.63
2022-11-16T06:30:04.732Z,3.17
2022-11-16T06:35:08.982Z,4.70
2022-11-16T06:40:12.231Z,4.50
2022-11-16T06:45:17.570Z,5.30
2022-11-16T06:50:25.393Z,4.22
2022-11-16T06:55:28.953Z,5.32
2022-11-16T07:00:30.791Z,3.63
2022-11-16T07:05:33.276Z,5.20
2022-11-16T07:10:36.104Z,4.57
2022-11-16T07:15:38.628Z,5.72
2022-11-16T07:20:40.713Z,5.88
2022-11-16T07:25:46.728Z,4.72
2022-11-16T07:30:54.688Z,5.00
2022-11-16T07:36:03.931Z,4.38
2022-11-16T07:41:10.792Z,5.55
2022-11-16T07:51:45.661Z,5.00
2022-11-16T07:57:04.466Z,3.80
2022-11-16T08:02:06.487Z,5.45
2022-11-16T08:07:08.670Z,5.45
2022-11-16T08:12:17.201Z,6.18
2022-11-16T08:17:19.259Z,4.30
2022-11-16T08:22:21.199Z,3.97
2022-11-16T08:27:23.916Z,4.15
2022-11-16T08:32:29.764Z,5.57
2022-11-16T08:37:34.759Z,5.32
2022-11-16T08:42:43.258Z,5.30
2022-11-16T08:47:46.039Z,5.18
2022-11-16T08:52:48.106Z,4.20
2022-11-16T08:57:50.037Z,4.60
2022-11-16T09:02:53.525Z,4.20
2022-11-16T09:07:55.153Z,5.10
2022-11-16T09:12:56.883Z,4.28
2022-11-16T09:17:58.573Z,3.65
2022-11-16T09:23:00.210Z,4.35
2022-11-16T09:28:01.840Z,4.30
2022-11-16T09:33:03.588Z,4.55
2022-11-16T09:38:06.007Z,3.88
2022-11-16T09:43:13.667Z,3.60
2022-11-16T09:48:16.994Z,3.95
2022-11-16T09:53:38.634Z,4.93
2022-11-16T09:59:00.243Z,3.72
2022-11-16T10:04:11.765Z,4.85
2022-11-16T10:09:13.548Z,3.83
2022-11-16T10:14:33.862Z,4.35
2022-11-16T10:19:46.718Z,3.90
2022-11-16T10:24:58.259Z,3.92
2022-11-16T10:30:16.538Z,4.20
2022-11-16T10:35:26.116Z,5.20
2022-11-16T10:40:30.572Z,3.60
2022-11-16T10:45:39.854Z,3.13
2022-11-16T10:50:45.161Z,4.13
2022-11-16T10:55:59.596Z,3.08
2022-11-16T11:01:01.309Z,3.67
2022-11-16T11:06:03.189Z,2.75
2022-11-16T11:11:24.749Z,2.70
2022-11-16T11:16:27.418Z,3.03
2022-11-16T11:21:29.128Z,3.78
2022-11-16T11:26:39.066Z,2.22
2022-11-16T11:31:55.516Z,2.35
2022-11-16T11:37:01.081Z,2.75
2022-11-16T11:42:14.507Z,1.95
2022-11-16T11:47:57.266Z,2.70
2022-11-16T11:53:08.256Z,1.92
2022-11-16T11:58:16.999Z,1.95
2022-11-16T12:03:49.372Z,1.63
2022-11-16T12:08:59.867Z,1.98
2022-11-16T12:14:20.116Z,2.97
2022-11-16T12:19:24.407Z,3.15
2022-11-16T12:24:53.000Z,1.38
2022-11-16T12:30:08.031Z,2.15
2022-11-16T12:35:48.771Z,1.98
2022-11-16T12:41:06.403Z,2.10
2022-11-16T12:46:29.341Z,2.65
2022-11-16T12:51:37.334Z,2.50
2022-11-16T12:56:48.869Z,1.77
2022-11-16T13:02:21.319Z,2.65
2022-11-16T13:07:48.636Z,1.73
2022-11-16T13:13:09.112Z,2.40
2022-11-16T13:18:17.680Z,1.65
2022-11-16T13:23:31.789Z,1.73
2022-11-16T13:29:14.791Z,1.95
2022-11-16T13:34:29.085Z,1.95
2022-11-16T13:39:58.745Z,2.20
2022-11-16T13:45:18.538Z,3.00
2022-11-16T13:50:23.145Z,2.67
2022-11-16T13:55:30.544Z,4.18
2022-11-16T14:00:59.862Z,3.13
2022-11-16T14:06:01.580Z,2.67
2022-11-16T14:11:03.631Z,4.72
2022-11-16T14:16:20.448Z,3.97
2022-11-16T14:21:48.850Z,4.10
2022-11-16T14:27:18.663Z,3.53
2022-11-16T14:32:43.503Z,4.75
2022-11-16T14:37:45.139Z,6.82
2022-11-16T14:43:20.211Z,5.63
2022-11-16T14:48:22.863Z,5.93
2022-11-16T14:53:25.190Z,4.50
2022-11-16T14:58:26.793Z,4.22
2022-11-16T15:03:31.560Z,6.30
2022-11-16T15:08:44.640Z,6.00
2022-11-16T15:13:47.402Z,5.78
2022-11-16T15:18:59.998Z,5.35
2022-11-16T15:24:28.907Z,6.10
2022-11-16T15:29:24.433Z,5.55
2022-11-16T15:34:26.150Z,6.38
2022-11-16T15:39:32.267Z,8.73
2022-11-16T15:44:34.003Z,5.88
2022-11-16T15:49:37.830Z,7.20
2022-11-16T15:54:58.161Z,7.30
2022-11-16T15:59:59.866Z,9.40
2022-11-16T16:05:01.466Z,8.10
2022-11-16T16:10:13.944Z,7.43
2022-11-16T16:15:25.611Z,8.63
2022-11-16T16:20:31.439Z,7.32
2022-11-16T16:25:34.508Z,7.57
2022-11-16T16:30:36.152Z,9.98
2022-11-16T16:35:37.768Z,7.38
2022-11-16T16:40:39.438Z,7.28
2022-11-16T16:45:43.528Z,7.85
2022-11-16T16:50:45.250Z,7.22
2022-11-16T16:55:50.031Z,7.55
2022-11-16T17:00:55.687Z,7.32
2022-11-16T17:06:01.893Z,7.25
2022-11-16T17:11:04.270Z,7.93
2022-11-16T17:16:06.178Z,8.30
2022-11-16T17:21:09.307Z,7.80
2022-11-16T17:26:10.965Z,9.63
2022-11-16T17:31:12.824Z,8.10
2022-11-16T17:36:14.445Z,7.97
2022-11-16T17:41:18.303Z,6.60
2022-11-16T17:46:21.750Z,8.82
2022-11-16T17:51:24.874Z,8.40
2022-11-16T17:56:27.668Z,9.10
2022-11-16T18:01:29.659Z,7.72
2022-11-16T18:06:32.444Z,7.07
2022-11-16T18:11:34.089Z,10.13
2022-11-16T18:16:36.176Z,10.50
2022-11-16T18:21:41.605Z,13.10
2022-11-16T18:26:43.303Z,16.13
2022-11-16T18:31:44.975Z,8.13
2022-11-16T18:36:48.894Z,8.05
2022-11-16T18:41:55.004Z,6.80
2022-11-16T18:46:57.116Z,6.30
2022-11-16T18:51:58.733Z,5.68
2022-11-16T18:57:00.401Z,5.18
2022-11-16T19:02:02.084Z,5.50
2022-11-16T19:07:03.732Z,6.95
2022-11-16T19:12:06.269Z,11.82
2022-11-16T19:17:08.034Z,5.30
2022-11-16T19:22:09.647Z,5.10
2022-11-16T19:27:12.274Z,5.45
2022-11-16T19:32:14.020Z,4.55
2022-11-16T19:37:15.699Z,2.45
2022-11-16T19:42:17.327Z,3.70
2022-11-16T19:47:19.043Z,2.70
2022-11-16T19:52:20.683Z,2.50
2022-11-16T19:57:22.338Z,2.83
2022-11-16T20:02:24.025Z,2.92
2022-11-16T20:07:25.688Z,2.20
2022-11-16T20:12:27.348Z,3.83
2022-11-16T20:17:28.959Z,2.60
2022-11-16T20:22:30.603Z,2.55
2022-11-16T20:27:32.221Z,2.50
2022-11-16T20:32:33.887Z,2.28
2022-11-16T20:37:36.945Z,2.55
2022-11-16T20:42:38.553Z,3.58
2022-11-16T20:47:40.141Z,2.20
2022-11-16T20:52:43.691Z,3.35
2022-11-16T20:57:47.701Z,3.28
2022-11-16T21:02:49.587Z,3.33
2022-11-16T21:07:51.180Z,2.17
2022-11-16T21:13:11.101Z,2.20
2022-11-16T21:18:12.741Z,2.42
2022-11-16T21:23:14.379Z,4.85
2022-11-16T21:28:20.175Z,3.20
2022-11-16T21:33:26.129Z,5.15
2022-11-16T21:38:27.748Z,3.20
2022-11-16T21:43:29.359Z,3.58
2022-11-16T21:48:33.172Z,1.70
2022-11-16T21:53:35.605Z,3.60
2022-11-16T21:58:39.094Z,3.90
2022-11-16T22:03:40.834Z,4.28
2022-11-16T22:08:42.987Z,2.45
2022-11-16T22:13:44.664Z,4.00
2022-11-16T22:18:46.352Z,2.53
2022-11-16T22:23:47.963Z,3.92
2022-11-16T22:28:49.833Z,2.70
2022-11-16T22:33:53.550Z,3.55
2022-11-16T22:38:57.127Z,2.38
2022-11-16T22:43:58.902Z,2.83
2022-11-16T22:49:00.803Z,3.83
2022-11-16T22:54:04.369Z,4.15
2022-11-16T22:59:06.297Z,4.63
2022-11-16T23:04:08.190Z,2.83
2022-11-16T23:09:09.832Z,4.13
2022-11-16T23:14:33.028Z,2.85
2022-11-16T23:19:53.304Z,3.00
2022-11-16T23:25:13.479Z,3.42
2022-11-16T23:30:15.121Z,3.22
2022-11-16T23:35:17.017Z,3.40
2022-11-16T23:40:18.667Z,4.28
2022-11-16T23:45:20.488Z,4.30
2022-11-16T23:50:22.144Z,3.30
2022-11-16T23:55:23.926Z,3.97
